This is the latest recevied weather packets stored in our database for station/object XW7RMR. If no packets are shown the sender has not sent any weather packets the latest 1 day(s).
| Time | Temp. | Humidity | Pressure | Rain* | Wind** | Luminosity | Snow |
|---|---|---|---|---|---|---|---|
| 1778089216 | 16.67° C | 75% | 1019.7 hPa | 0 mm | - | 382 W/m² | - |
| 1778088914 | 16.67° C | 74% | 1019.7 hPa | 0 mm | - | 329 W/m² | - |
| 1778087399 | 15° C | 79% | 1019.7 hPa | 0 mm | - | 295 W/m² | - |
| 1778086794 | 15° C | 79% | 1019.9 hPa | 0 mm | - | 207 W/m² | - |
| 1778086188 | 15° C | 78% | 1019.9 hPa | 0 mm | - | 175 W/m² | - |
| 1778085885 | 15° C | 78% | 1019.8 hPa | 0 mm | - | 170 W/m² | - |
| 1778084671 | 14.44° C | 79% | 1019.8 hPa | 0 mm | - | 162 W/m² | - |
| 1778084066 | 13.89° C | 81% | 1019.7 hPa | 0 mm | - | 200 W/m² | - |
| 1778083763 | 14.44° C | 80% | 1019.5 hPa | 0 mm | - | 206 W/m² | - |
| 1778083460 | 14.44° C | 80% | 1019.7 hPa | 0 mm | - | 178 W/m² | - |
| 1778082855 | 13.89° C | 82% | 1019.4 hPa | 0 mm | - | 186 W/m² | - |
| 1778081434 | 13.33° C | 84% | 1019.4 hPa | 0 mm | - | 226 W/m² | - |
| 1778081131 | 12.78° C | 85% | 1019.4 hPa | 0 mm | - | 124 W/m² | - |
| 1778079617 | 12.78° C | 86% | 1019.8 hPa | 0 mm | - | 46 W/m² | - |
| 1778079011 | 12.78° C | 86% | 1019.7 hPa | 0 mm | - | 51 W/m² | - |
| 1778077801 | 12.78° C | 88% | 1019.4 hPa | 0 mm | - | 47 W/m² | - |
| 1778077498 | 12.78° C | 87% | 1019.3 hPa | 0 mm | - | 46 W/m² | - |
| 1778076592 | 12.78° C | 88% | 1018.9 hPa | 0 mm | - | 58 W/m² | - |
| 1778075985 | 12.78° C | 88% | 1018.6 hPa | 0 mm | - | 59 W/m² | - |
| 1778075683 | 12.78° C | 89% | 1018.7 hPa | 0 mm | - | 49 W/m² | - |
| 1778075075 | 12.22° C | 89% | 1018.7 hPa | 0 mm | - | 34 W/m² | - |
| 1778074772 | 12.22° C | 89% | 1018.7 hPa | 0 mm | - | 29 W/m² | - |
| 1778073560 | 12.22° C | 89% | 1018.5 hPa | 0 mm | - | 17 W/m² | - |
| 1778071744 | 12.22° C | 89% | 1018.2 hPa | 0 mm | - | 1 W/m² | - |
| 1778071441 | 12.22° C | 89% | 1018.3 hPa | 0 mm | - | 1 W/m² | - |
* Rain latest hour (hover to see other rain measurements)
** Current wind speed in m/s (hover to see current wind gust speed)